sensor_id;sensor_type;location;lat;lon;timestamp;pressure;altitude;pressure_sealevel;temperature;humidity
78117;BME280;69042;59.120;37.904;2023-12-20T00:00:12;97511.75;;;1.35;78.81
78117;BME280;69042;59.120;37.904;2023-12-20T00:02:38;97502.19;;;1.38;79.19
78117;BME280;69042;59.120;37.904;2023-12-20T00:05:05;97501.91;;;1.44;78.76
78117;BME280;69042;59.120;37.904;2023-12-20T00:07:32;97503.25;;;1.52;79.08
78117;BME280;69042;59.120;37.904;2023-12-20T00:09:58;97512.28;;;1.60;79.13
78117;BME280;69042;59.120;37.904;2023-12-20T00:12:24;97510.16;;;1.69;78.71
78117;BME280;69042;59.120;37.904;2023-12-20T00:14:51;97515.72;;;1.78;79.00
78117;BME280;69042;59.120;37.904;2023-12-20T00:17:17;97514.50;;;1.85;79.13
78117;BME280;69042;59.120;37.904;2023-12-20T00:19:43;97500.59;;;1.90;79.13
78117;BME280;69042;59.120;37.904;2023-12-20T00:22:10;97505.50;;;1.94;78.35
78117;BME280;69042;59.120;37.904;2023-12-20T00:24:36;97496.97;;;1.94;78.62
78117;BME280;69042;59.120;37.904;2023-12-20T00:27:03;97505.50;;;1.94;78.54
78117;BME280;69042;59.120;37.904;2023-12-20T00:29:29;97504.81;;;1.91;78.30
78117;BME280;69042;59.120;37.904;2023-12-20T00:31:56;97499.97;;;1.84;78.45
78117;BME280;69042;59.120;37.904;2023-12-20T00:34:22;97488.16;;;1.80;77.95
78117;BME280;69042;59.120;37.904;2023-12-20T00:36:48;97486.78;;;1.73;77.44
78117;BME280;69042;59.120;37.904;2023-12-20T00:39:14;97494.88;;;1.65;77.66
78117;BME280;69042;59.120;37.904;2023-12-20T00:41:40;97478.19;;;1.55;77.98
78117;BME280;69042;59.120;37.904;2023-12-20T00:44:06;97479.50;;;1.47;78.04
78117;BME280;69042;59.120;37.904;2023-12-20T00:46:32;97472.00;;;1.42;77.86
78117;BME280;69042;59.120;37.904;2023-12-20T00:48:59;97471.47;;;1.35;78.02
78117;BME280;69042;59.120;37.904;2023-12-20T00:51:25;97466.44;;;1.32;78.16
78117;BME280;69042;59.120;37.904;2023-12-20T00:53:51;97469.22;;;1.28;78.32
78117;BME280;69042;59.120;37.904;2023-12-20T00:56:20;97472.03;;;1.23;77.58
78117;BME280;69042;59.120;37.904;2023-12-20T00:58:47;97462.72;;;1.20;78.06
78117;BME280;69042;59.120;37.904;2023-12-20T01:01:13;97468.91;;;1.16;78.19
78117;BME280;69042;59.120;37.904;2023-12-20T01:03:39;97465.66;;;1.13;77.83
78117;BME280;69042;59.120;37.904;2023-12-20T01:06:05;97464.03;;;1.10;78.35
78117;BME280;69042;59.120;37.904;2023-12-20T01:08:32;97463.31;;;1.08;78.26
78117;BME280;69042;59.120;37.904;2023-12-20T01:11:00;97467.59;;;1.08;78.11
78117;BME280;69042;59.120;37.904;2023-12-20T01:13:26;97461.81;;;1.02;78.84
78117;BME280;69042;59.120;37.904;2023-12-20T01:15:52;97460.25;;;1.00;78.61
78117;BME280;69042;59.120;37.904;2023-12-20T01:18:18;97457.81;;;0.97;78.62
78117;BME280;69042;59.120;37.904;2023-12-20T01:20:45;97456.19;;;0.94;78.40
78117;BME280;69042;59.120;37.904;2023-12-20T01:23:11;97460.56;;;0.92;78.32
78117;BME280;69042;59.120;37.904;2023-12-20T01:25:37;97449.63;;;0.89;78.39
78117;BME280;69042;59.120;37.904;2023-12-20T01:28:03;97448.03;;;0.86;78.76
78117;BME280;69042;59.120;37.904;2023-12-20T01:30:30;97448.84;;;0.87;79.21
78117;BME280;69042;59.120;37.904;2023-12-20T01:33:01;97448.09;;;0.85;78.84
78117;BME280;69042;59.120;37.904;2023-12-20T01:35:27;97445.50;;;0.85;78.61
78117;BME280;69042;59.120;37.904;2023-12-20T01:37:53;97448.13;;;0.83;79.05
78117;BME280;69042;59.120;37.904;2023-12-20T01:40:23;97443.84;;;0.83;78.57
78117;BME280;69042;59.120;37.904;2023-12-20T01:43:02;97444.81;;;0.81;79.31
78117;BME280;69042;59.120;37.904;2023-12-20T01:45:28;97453.28;;;0.83;79.16
78117;BME280;69042;59.120;37.904;2023-12-20T01:47:56;97443.09;;;0.81;78.74
78117;BME280;69042;59.120;37.904;2023-12-20T01:50:23;97443.97;;;0.80;79.24
78117;BME280;69042;59.120;37.904;2023-12-20T01:52:50;97437.19;;;0.79;79.44
78117;BME280;69042;59.120;37.904;2023-12-20T01:55:19;97437.84;;;0.83;79.36
78117;BME280;69042;59.120;37.904;2023-12-20T01:57:46;97432.50;;;0.88;79.73
78117;BME280;69042;59.120;37.904;2023-12-20T02:00:13;97430.56;;;0.93;79.58
78117;BME280;69042;59.120;37.904;2023-12-20T02:02:40;97426.97;;;0.97;79.79
78117;BME280;69042;59.120;37.904;2023-12-20T02:05:07;97419.09;;;1.00;79.94
78117;BME280;69042;59.120;37.904;2023-12-20T02:07:34;97417.97;;;1.06;79.21
78117;BME280;69042;59.120;37.904;2023-12-20T02:10:01;97423.66;;;1.12;79.73
78117;BME280;69042;59.120;37.904;2023-12-20T02:12:28;97427.69;;;1.18;80.18
78117;BME280;69042;59.120;37.904;2023-12-20T02:14:54;97434.25;;;1.23;79.40
78117;BME280;69042;59.120;37.904;2023-12-20T02:17:20;97421.28;;;1.27;79.31
78117;BME280;69042;59.120;37.904;2023-12-20T02:19:46;97413.41;;;1.30;79.15
78117;BME280;69042;59.120;37.904;2023-12-20T02:22:12;97422.81;;;1.31;79.28
78117;BME280;69042;59.120;37.904;2023-12-20T02:24:39;97414.22;;;1.30;79.28
78117;BME280;69042;59.120;37.904;2023-12-20T02:27:06;97419.59;;;1.25;78.59
78117;BME280;69042;59.120;37.904;2023-12-20T02:29:34;97406.06;;;1.22;78.51
78117;BME280;69042;59.120;37.904;2023-12-20T02:32:00;97406.28;;;1.17;78.29
78117;BME280;69042;59.120;37.904;2023-12-20T02:34:27;97404.66;;;1.15;78.54
78117;BME280;69042;59.120;37.904;2023-12-20T02:36:53;97410.72;;;1.14;78.33
78117;BME280;69042;59.120;37.904;2023-12-20T02:39:20;97411.44;;;1.17;78.88
78117;BME280;69042;59.120;37.904;2023-12-20T02:41:46;97409.47;;;1.22;78.65
78117;BME280;69042;59.120;37.904;2023-12-20T02:44:12;97410.84;;;1.30;79.12
78117;BME280;69042;59.120;37.904;2023-12-20T02:46:39;97410.44;;;1.37;78.65
78117;BME280;69042;59.120;37.904;2023-12-20T02:49:06;97404.25;;;1.41;79.05
78117;BME280;69042;59.120;37.904;2023-12-20T02:51:32;97410.75;;;1.49;79.11
78117;BME280;69042;59.120;37.904;2023-12-20T02:53:58;97410.56;;;1.53;78.53
78117;BME280;69042;59.120;37.904;2023-12-20T02:56:24;97405.25;;;1.56;79.01
78117;BME280;69042;59.120;37.904;2023-12-20T02:58:50;97415.47;;;1.58;78.37
78117;BME280;69042;59.120;37.904;2023-12-20T03:01:17;97421.28;;;1.61;78.80
78117;BME280;69042;59.120;37.904;2023-12-20T03:03:43;97415.91;;;1.66;78.37
78117;BME280;69042;59.120;37.904;2023-12-20T03:06:09;97424.16;;;1.73;78.67
78117;BME280;69042;59.120;37.904;2023-12-20T03:08:35;97414.63;;;1.75;78.66
78117;BME280;69042;59.120;37.904;2023-12-20T03:11:01;97419.56;;;1.79;78.83
78117;BME280;69042;59.120;37.904;2023-12-20T03:13:27;97418.50;;;1.83;78.28
78117;BME280;69042;59.120;37.904;2023-12-20T03:15:54;97420.91;;;1.86;78.09
78117;BME280;69042;59.120;37.904;2023-12-20T03:18:20;97420.78;;;1.90;77.84
78117;BME280;69042;59.120;37.904;2023-12-20T03:20:47;97420.59;;;1.93;77.56
78117;BME280;69042;59.120;37.904;2023-12-20T03:23:15;97415.28;;;1.96;77.85
78117;BME280;69042;59.120;37.904;2023-12-20T03:25:41;97419.63;;;1.95;77.82
78117;BME280;69042;59.120;37.904;2023-12-20T03:28:07;97413.81;;;1.92;77.76
78117;BME280;69042;59.120;37.904;2023-12-20T03:30:34;97418.09;;;1.91;77.16
78117;BME280;69042;59.120;37.904;2023-12-20T03:33:00;97425.69;;;1.94;77.60
78117;BME280;69042;59.120;37.904;2023-12-20T03:35:26;97424.69;;;1.97;77.75
78117;BME280;69042;59.120;37.904;2023-12-20T03:37:52;97426.28;;;1.99;77.46
78117;BME280;69042;59.120;37.904;2023-12-20T03:40:19;97434.69;;;2.03;78.11
78117;BME280;69042;59.120;37.904;2023-12-20T03:42:45;97420.06;;;2.03;77.39
78117;BME280;69042;59.120;37.904;2023-12-20T03:45:11;97429.44;;;2.04;77.43
78117;BME280;69042;59.120;37.904;2023-12-20T03:47:37;97419.91;;;2.06;76.87
78117;BME280;69042;59.120;37.904;2023-12-20T03:50:04;97415.56;;;2.07;77.39
78117;BME280;69042;59.120;37.904;2023-12-20T03:52:31;97409.53;;;2.08;77.31
78117;BME280;69042;59.120;37.904;2023-12-20T03:54:57;97413.75;;;2.09;77.23
78117;BME280;69042;59.120;37.904;2023-12-20T03:57:23;97412.09;;;2.08;77.26
78117;BME280;69042;59.120;37.904;2023-12-20T03:59:49;97402.56;;;2.10;76.61
78117;BME280;69042;59.120;37.904;2023-12-20T04:02:16;97383.84;;;2.06;76.38
78117;BME280;69042;59.120;37.904;2023-12-20T04:04:43;97388.25;;;2.04;76.65
78117;BME280;69042;59.120;37.904;2023-12-20T04:07:10;97386.81;;;1.99;75.93
78117;BME280;69042;59.120;37.904;2023-12-20T04:09:36;97393.09;;;1.93;76.02
78117;BME280;69042;59.120;37.904;2023-12-20T04:12:02;97397.66;;;1.88;76.46
78117;BME280;69042;59.120;37.904;2023-12-20T04:14:29;97402.28;;;1.81;75.94
78117;BME280;69042;59.120;37.904;2023-12-20T04:16:55;97401.69;;;1.76;75.96
78117;BME280;69042;59.120;37.904;2023-12-20T04:19:21;97406.84;;;1.76;76.38
78117;BME280;69042;59.120;37.904;2023-12-20T04:21:47;97403.56;;;1.73;76.69
78117;BME280;69042;59.120;37.904;2023-12-20T04:24:14;97401.06;;;1.71;76.30
78117;BME280;69042;59.120;37.904;2023-12-20T04:26:40;97420.00;;;1.70;76.06
78117;BME280;69042;59.120;37.904;2023-12-20T04:29:06;97427.72;;;1.70;76.49
78117;BME280;69042;59.120;37.904;2023-12-20T04:31:32;97428.50;;;1.72;76.34
78117;BME280;69042;59.120;37.904;2023-12-20T04:33:59;97435.22;;;1.75;76.42
78117;BME280;69042;59.120;37.904;2023-12-20T04:36:25;97431.44;;;1.82;76.23
78117;BME280;69042;59.120;37.904;2023-12-20T04:38:53;97436.34;;;1.86;76.96
78117;BME280;69042;59.120;37.904;2023-12-20T04:41:19;97439.44;;;1.93;76.82
78117;BME280;69042;59.120;37.904;2023-12-20T04:43:46;97432.34;;;1.98;76.74
78117;BME280;69042;59.120;37.904;2023-12-20T04:46:12;97433.78;;;2.04;76.42
78117;BME280;69042;59.120;37.904;2023-12-20T04:48:39;97436.94;;;2.09;76.23
78117;BME280;69042;59.120;37.904;2023-12-20T04:51:05;97435.06;;;2.13;76.58
78117;BME280;69042;59.120;37.904;2023-12-20T04:53:32;97439.97;;;2.17;76.42
78117;BME280;69042;59.120;37.904;2023-12-20T04:55:58;97429.50;;;2.20;76.93
78117;BME280;69042;59.120;37.904;2023-12-20T04:58:24;97431.06;;;2.23;76.03
78117;BME280;69042;59.120;37.904;2023-12-20T05:00:51;97429.25;;;2.25;76.23
78117;BME280;69042;59.120;37.904;2023-12-20T05:03:18;97420.63;;;2.26;75.78
78117;BME280;69042;59.120;37.904;2023-12-20T05:05:44;97427.38;;;2.28;75.87
78117;BME280;69042;59.120;37.904;2023-12-20T05:08:11;97427.13;;;2.33;75.69
78117;BME280;69042;59.120;37.904;2023-12-20T05:10:37;97427.94;;;2.34;75.83
78117;BME280;69042;59.120;37.904;2023-12-20T05:13:03;97427.88;;;2.35;75.46
78117;BME280;69042;59.120;37.904;2023-12-20T05:15:30;97422.66;;;2.37;75.64
78117;BME280;69042;59.120;37.904;2023-12-20T05:17:56;97419.91;;;2.40;75.70
78117;BME280;69042;59.120;37.904;2023-12-20T05:20:23;97414.75;;;2.40;75.19
78117;BME280;69042;59.120;37.904;2023-12-20T05:22:50;97419.75;;;2.43;75.14
78117;BME280;69042;59.120;37.904;2023-12-20T05:25:16;97416.25;;;2.44;75.09
78117;BME280;69042;59.120;37.904;2023-12-20T05:27:42;97414.59;;;2.43;74.92
78117;BME280;69042;59.120;37.904;2023-12-20T05:30:09;97410.19;;;2.45;74.38
78117;BME280;69042;59.120;37.904;2023-12-20T05:32:36;97412.00;;;2.43;74.62
78117;BME280;69042;59.120;37.904;2023-12-20T05:35:02;97413.69;;;2.44;74.95
78117;BME280;69042;59.120;37.904;2023-12-20T05:37:29;97414.59;;;2.43;74.44
78117;BME280;69042;59.120;37.904;2023-12-20T05:39:55;97415.34;;;2.45;74.06
78117;BME280;69042;59.120;37.904;2023-12-20T05:42:21;97410.19;;;2.45;74.28
78117;BME280;69042;59.120;37.904;2023-12-20T05:44:47;97409.44;;;2.43;74.07
78117;BME280;69042;59.120;37.904;2023-12-20T05:47:13;97407.84;;;2.40;73.69
78117;BME280;69042;59.120;37.904;2023-12-20T05:49:40;97413.31;;;2.34;74.02
78117;BME280;69042;59.120;37.904;2023-12-20T05:52:06;97412.66;;;2.31;73.62
78117;BME280;69042;59.120;37.904;2023-12-20T05:54:32;97413.78;;;2.25;73.41
78117;BME280;69042;59.120;37.904;2023-12-20T05:56:58;97419.19;;;2.20;73.83
78117;BME280;69042;59.120;37.904;2023-12-20T05:59:25;97423.59;;;2.18;73.74
78117;BME280;69042;59.120;37.904;2023-12-20T06:01:51;97428.59;;;2.21;74.19
78117;BME280;69042;59.120;37.904;2023-12-20T06:04:17;97428.50;;;2.23;74.25
78117;BME280;69042;59.120;37.904;2023-12-20T06:06:43;97442.00;;;2.28;74.06
78117;BME280;69042;59.120;37.904;2023-12-20T06:09:10;97429.88;;;2.30;73.38
78117;BME280;69042;59.120;37.904;2023-12-20T06:11:37;97428.06;;;2.32;73.28
78117;BME280;69042;59.120;37.904;2023-12-20T06:14:04;97440.75;;;2.35;73.97
78117;BME280;69042;59.120;37.904;2023-12-20T06:16:34;97438.94;;;2.37;73.87
78117;BME280;69042;59.120;37.904;2023-12-20T06:19:00;97450.75;;;2.41;73.80
78117;BME280;69042;59.120;37.904;2023-12-20T06:21:26;97437.78;;;2.43;73.95
78117;BME280;69042;59.120;37.904;2023-12-20T06:23:53;97431.56;;;2.47;73.89
78117;BME280;69042;59.120;37.904;2023-12-20T06:26:19;97442.56;;;2.50;73.61
78117;BME280;69042;59.120;37.904;2023-12-20T06:28:45;97443.19;;;2.54;74.36
78117;BME280;69042;59.120;37.904;2023-12-20T06:31:11;97441.47;;;2.55;73.85
78117;BME280;69042;59.120;37.904;2023-12-20T06:33:40;97462.00;;;2.56;73.84
78117;BME280;69042;59.120;37.904;2023-12-20T06:36:11;97448.22;;;2.57;73.33
78117;BME280;69042;59.120;37.904;2023-12-20T06:38:38;97445.72;;;2.56;73.38
78117;BME280;69042;59.120;37.904;2023-12-20T06:41:05;97440.72;;;2.53;73.01
78117;BME280;69042;59.120;37.904;2023-12-20T06:43:32;97446.63;;;2.55;73.13
78117;BME280;69042;59.120;37.904;2023-12-20T06:46:02;97454.38;;;2.55;73.31
78117;BME280;69042;59.120;37.904;2023-12-20T06:48:29;97450.94;;;2.54;72.79
78117;BME280;69042;59.120;37.904;2023-12-20T06:50:55;97434.81;;;2.50;72.79
78117;BME280;69042;59.120;37.904;2023-12-20T06:53:21;97438.22;;;2.51;73.04
78117;BME280;69042;59.120;37.904;2023-12-20T06:55:48;97432.47;;;2.46;72.42
78117;BME280;69042;59.120;37.904;2023-12-20T06:58:14;97423.41;;;2.39;72.20
78117;BME280;69042;59.120;37.904;2023-12-20T07:00:41;97433.28;;;2.31;72.17
78117;BME280;69042;59.120;37.904;2023-12-20T07:03:07;97410.47;;;2.23;72.51
78117;BME280;69042;59.120;37.904;2023-12-20T07:05:35;97432.16;;;2.19;72.44
78117;BME280;69042;59.120;37.904;2023-12-20T07:08:01;97410.88;;;2.15;72.45
78117;BME280;69042;59.120;37.904;2023-12-20T07:10:27;97427.25;;;2.14;72.58
78117;BME280;69042;59.120;37.904;2023-12-20T07:12:54;97417.78;;;2.15;72.94
78117;BME280;69042;59.120;37.904;2023-12-20T07:15:21;97421.19;;;2.15;72.46
78117;BME280;69042;59.120;37.904;2023-12-20T07:17:48;97422.69;;;2.19;73.12
78117;BME280;69042;59.120;37.904;2023-12-20T07:20:14;97417.53;;;2.19;72.87
78117;BME280;69042;59.120;37.904;2023-12-20T07:22:41;97409.75;;;2.21;72.33
78117;BME280;69042;59.120;37.904;2023-12-20T07:25:07;97420.88;;;2.21;73.07
78117;BME280;69042;59.120;37.904;2023-12-20T07:27:34;97423.34;;;2.23;73.25
78117;BME280;69042;59.120;37.904;2023-12-20T07:30:00;97413.72;;;2.26;72.63
78117;BME280;69042;59.120;37.904;2023-12-20T07:32:26;97409.31;;;2.28;73.17
78117;BME280;69042;59.120;37.904;2023-12-20T07:34:53;97415.91;;;2.34;72.99
78117;BME280;69042;59.120;37.904;2023-12-20T07:37:20;97413.25;;;2.36;73.71
78117;BME280;69042;59.120;37.904;2023-12-20T07:39:46;97411.25;;;2.41;73.56
78117;BME280;69042;59.120;37.904;2023-12-20T07:42:13;97422.94;;;2.48;72.98
78117;BME280;69042;59.120;37.904;2023-12-20T07:44:39;97414.19;;;2.50;72.47
78117;BME280;69042;59.120;37.904;2023-12-20T07:47:05;97407.28;;;2.51;72.55
78117;BME280;69042;59.120;37.904;2023-12-20T07:49:32;97414.72;;;2.57;72.89
78117;BME280;69042;59.120;37.904;2023-12-20T07:51:58;97425.66;;;2.61;72.57
78117;BME280;69042;59.120;37.904;2023-12-20T07:54:24;97412.53;;;2.65;72.36
78117;BME280;69042;59.120;37.904;2023-12-20T07:56:50;97416.72;;;2.68;72.32
78117;BME280;69042;59.120;37.904;2023-12-20T07:59:17;97406.31;;;2.69;72.62
78117;BME280;69042;59.120;37.904;2023-12-20T08:01:43;97395.84;;;2.73;72.18
78117;BME280;69042;59.120;37.904;2023-12-20T08:04:09;97391.50;;;2.73;71.76
78117;BME280;69042;59.120;37.904;2023-12-20T08:06:36;97391.91;;;2.65;71.55
78117;BME280;69042;59.120;37.904;2023-12-20T08:09:02;97390.50;;;2.60;71.95
78117;BME280;69042;59.120;37.904;2023-12-20T08:11:28;97391.81;;;2.51;71.91
78117;BME280;69042;59.120;37.904;2023-12-20T08:13:55;97358.66;;;2.45;71.22
78117;BME280;69042;59.120;37.904;2023-12-20T08:16:21;97383.00;;;2.39;71.29
78117;BME280;69042;59.120;37.904;2023-12-20T08:18:48;97384.97;;;2.34;71.40
78117;BME280;69042;59.120;37.904;2023-12-20T08:21:14;97381.81;;;2.29;71.20
78117;BME280;69042;59.120;37.904;2023-12-20T08:23:40;97388.78;;;2.27;71.32
78117;BME280;69042;59.120;37.904;2023-12-20T08:26:09;97372.69;;;2.23;71.13
78117;BME280;69042;59.120;37.904;2023-12-20T08:28:36;97379.66;;;2.21;71.42
78117;BME280;69042;59.120;37.904;2023-12-20T08:31:03;97371.25;;;2.18;71.59
78117;BME280;69042;59.120;37.904;2023-12-20T08:33:30;97380.72;;;2.17;71.61
78117;BME280;69042;59.120;37.904;2023-12-20T08:35:56;97374.81;;;2.15;71.83
78117;BME280;69042;59.120;37.904;2023-12-20T08:38:22;97390.34;;;2.14;71.92
78117;BME280;69042;59.120;37.904;2023-12-20T08:40:48;97375.06;;;2.11;71.18
78117;BME280;69042;59.120;37.904;2023-12-20T08:43:14;97369.84;;;2.12;71.54
78117;BME280;69042;59.120;37.904;2023-12-20T08:45:41;97375.75;;;2.14;71.59
78117;BME280;69042;59.120;37.904;2023-12-20T08:48:07;97374.88;;;2.14;70.81
78117;BME280;69042;59.120;37.904;2023-12-20T08:50:33;97369.06;;;2.10;70.99
78117;BME280;69042;59.120;37.904;2023-12-20T08:53:00;97390.44;;;2.12;70.94
78117;BME280;69042;59.120;37.904;2023-12-20T08:55:26;97392.09;;;2.13;70.96
78117;BME280;69042;59.120;37.904;2023-12-20T08:57:55;97374.06;;;2.13;70.36
78117;BME280;69042;59.120;37.904;2023-12-20T09:00:21;97385.94;;;2.16;70.74
78117;BME280;69042;59.120;37.904;2023-12-20T09:02:50;97398.75;;;2.17;70.94
78117;BME280;69042;59.120;37.904;2023-12-20T09:05:16;97406.41;;;2.19;70.60
78117;BME280;69042;59.120;37.904;2023-12-20T09:07:42;97397.75;;;2.20;70.77
78117;BME280;69042;59.120;37.904;2023-12-20T09:10:09;97413.16;;;2.21;70.84
78117;BME280;69042;59.120;37.904;2023-12-20T09:12:35;97406.25;;;2.22;70.88
78117;BME280;69042;59.120;37.904;2023-12-20T09:15:05;97412.22;;;2.22;70.27
78117;BME280;69042;59.120;37.904;2023-12-20T09:17:32;97407.06;;;2.22;70.80
78117;BME280;69042;59.120;37.904;2023-12-20T09:19:58;97409.56;;;2.24;70.80
78117;BME280;69042;59.120;37.904;2023-12-20T09:22:25;97412.06;;;2.25;70.57
78117;BME280;69042;59.120;37.904;2023-12-20T09:24:52;97401.78;;;2.25;70.52
78117;BME280;69042;59.120;37.904;2023-12-20T09:27:18;97413.72;;;2.26;70.24
78117;BME280;69042;59.120;37.904;2023-12-20T09:29:44;97417.13;;;2.27;70.01
78117;BME280;69042;59.120;37.904;2023-12-20T09:32:20;97404.34;;;2.25;69.64
78117;BME280;69042;59.120;37.904;2023-12-20T09:34:47;97416.47;;;2.23;70.13
78117;BME280;69042;59.120;37.904;2023-12-20T09:37:13;97411.47;;;2.20;69.99
78117;BME280;69042;59.120;37.904;2023-12-20T09:39:40;97421.75;;;2.20;69.85
78117;BME280;69042;59.120;37.904;2023-12-20T09:42:06;97421.69;;;2.22;69.84
78117;BME280;69042;59.120;37.904;2023-12-20T09:44:33;97432.00;;;2.22;70.08
78117;BME280;69042;59.120;37.904;2023-12-20T09:47:03;97408.00;;;2.21;70.25
78117;BME280;69042;59.120;37.904;2023-12-20T09:49:30;97415.56;;;2.24;69.77
78117;BME280;69042;59.120;37.904;2023-12-20T09:51:56;97407.50;;;2.31;69.59
78117;BME280;69042;59.120;37.904;2023-12-20T09:54:23;97412.50;;;2.34;69.81
78117;BME280;69042;59.120;37.904;2023-12-20T09:56:50;97416.75;;;2.35;69.47
78117;BME280;69042;59.120;37.904;2023-12-20T09:59:16;97417.66;;;2.34;69.60
78117;BME280;69042;59.120;37.904;2023-12-20T10:01:43;97416.66;;;2.36;69.31
78117;BME280;69042;59.120;37.904;2023-12-20T10:04:10;97422.47;;;2.40;69.49
78117;BME280;69042;59.120;37.904;2023-12-20T10:06:44;97425.56;;;2.46;69.51
78117;BME280;69042;59.120;37.904;2023-12-20T10:09:11;97417.53;;;2.53;69.04
78117;BME280;69042;59.120;37.904;2023-12-20T10:11:38;97427.25;;;2.63;69.54
78117;BME280;69042;59.120;37.904;2023-12-20T10:14:08;97439.75;;;2.71;69.58
78117;BME280;69042;59.120;37.904;2023-12-20T10:16:36;97442.75;;;2.79;69.49
78117;BME280;69042;59.120;37.904;2023-12-20T10:19:03;97454.56;;;2.83;69.14
78117;BME280;69042;59.120;37.904;2023-12-20T10:21:30;97450.25;;;2.84;68.29
78117;BME280;69042;59.120;37.904;2023-12-20T10:23:57;97439.19;;;2.82;68.36
78117;BME280;69042;59.120;37.904;2023-12-20T10:26:26;97454.66;;;2.82;68.14
78117;BME280;69042;59.120;37.904;2023-12-20T10:28:54;97446.75;;;2.85;68.13
78117;BME280;69042;59.120;37.904;2023-12-20T10:31:29;97468.13;;;2.87;67.97
78117;BME280;69042;59.120;37.904;2023-12-20T10:34:01;97464.72;;;2.86;68.29
78117;BME280;69042;59.120;37.904;2023-12-20T10:36:29;97459.63;;;2.85;68.48
78117;BME280;69042;59.120;37.904;2023-12-20T10:38:56;97471.69;;;2.84;68.20
78117;BME280;69042;59.120;37.904;2023-12-20T10:41:27;97475.09;;;2.85;67.62
78117;BME280;69042;59.120;37.904;2023-12-20T10:43:59;97463.16;;;2.84;67.82
78117;BME280;69042;59.120;37.904;2023-12-20T10:46:30;97480.44;;;2.82;67.69
78117;BME280;69042;59.120;37.904;2023-12-20T10:48:58;97468.44;;;2.81;67.11
78117;BME280;69042;59.120;37.904;2023-12-20T10:51:25;97475.34;;;2.80;67.03
78117;BME280;69042;59.120;37.904;2023-12-20T10:53:57;97471.94;;;2.80;67.38
78117;BME280;69042;59.120;37.904;2023-12-20T10:56:23;97458.31;;;2.78;66.62
78117;BME280;69042;59.120;37.904;2023-12-20T10:58:50;97465.22;;;2.77;66.61
78117;BME280;69042;59.120;37.904;2023-12-20T11:01:18;97468.53;;;2.79;66.50
78117;BME280;69042;59.120;37.904;2023-12-20T11:03:52;97471.13;;;2.79;66.57
78117;BME280;69042;59.120;37.904;2023-12-20T11:06:24;97471.13;;;2.79;66.45
78117;BME280;69042;59.120;37.904;2023-12-20T11:08:59;97466.88;;;2.78;66.66
78117;BME280;69042;59.120;37.904;2023-12-20T11:14:22;97466.19;;;2.75;66.82
78117;BME280;69042;59.120;37.904;2023-12-20T11:16:49;97455.03;;;2.74;65.97
78117;BME280;69042;59.120;37.904;2023-12-20T11:19:17;97442.16;;;2.74;66.36
78117;BME280;69042;59.120;37.904;2023-12-20T11:21:43;97462.72;;;2.76;66.46
78117;BME280;69042;59.120;37.904;2023-12-20T11:24:11;97457.63;;;2.74;66.46
78117;BME280;69042;59.120;37.904;2023-12-20T11:26:37;97452.56;;;2.73;65.70
78117;BME280;69042;59.120;37.904;2023-12-20T11:29:29;97437.75;;;2.76;65.26
78117;BME280;69042;59.120;37.904;2023-12-20T11:31:55;97461.78;;;2.77;66.10
78117;BME280;69042;59.120;37.904;2023-12-20T11:34:22;97462.63;;;2.77;65.65
78117;BME280;69042;59.120;37.904;2023-12-20T11:36:48;97460.94;;;2.76;65.40
78117;BME280;69042;59.120;37.904;2023-12-20T11:39:20;97464.47;;;2.75;65.74
78117;BME280;69042;59.120;37.904;2023-12-20T11:41:49;97462.63;;;2.77;65.78
78117;BME280;69042;59.120;37.904;2023-12-20T11:44:17;97459.19;;;2.77;64.82
78117;BME280;69042;59.120;37.904;2023-12-20T11:46:44;97464.34;;;2.77;65.40
78117;BME280;69042;59.120;37.904;2023-12-20T11:49:10;97473.03;;;2.76;64.89
78117;BME280;69042;59.120;37.904;2023-12-20T11:51:40;97497.22;;;2.73;64.64
78117;BME280;69042;59.120;37.904;2023-12-20T11:54:07;97466.28;;;2.73;64.91
78117;BME280;69042;59.120;37.904;2023-12-20T11:56:36;97470.63;;;2.73;65.57
78117;BME280;69042;59.120;37.904;2023-12-20T11:59:02;97469.69;;;2.74;64.80
78117;BME280;69042;59.120;37.904;2023-12-20T12:01:29;97471.34;;;2.75;64.47
78117;BME280;69042;59.120;37.904;2023-12-20T12:04:05;97491.13;;;2.74;64.82
78117;BME280;69042;59.120;37.904;2023-12-20T12:06:32;97535.72;;;2.76;64.76
78117;BME280;69042;59.120;37.904;2023-12-20T12:08:58;97485.09;;;2.75;64.63
78117;BME280;69042;59.120;37.904;2023-12-20T12:11:25;97498.88;;;2.74;64.89
78117;BME280;69042;59.120;37.904;2023-12-20T12:13:51;97503.13;;;2.75;64.52
78117;BME280;69042;59.120;37.904;2023-12-20T12:16:21;97502.38;;;2.73;64.56
78117;BME280;69042;59.120;37.904;2023-12-20T12:18:57;97500.69;;;2.72;64.60
78117;BME280;69042;59.120;37.904;2023-12-20T12:21:24;97503.38;;;2.70;64.68
78117;BME280;69042;59.120;37.904;2023-12-20T12:23:51;97521.44;;;2.70;64.28
78117;BME280;69042;59.120;37.904;2023-12-20T12:26:17;97518.84;;;2.70;64.00
78117;BME280;69042;59.120;37.904;2023-12-20T12:28:43;97506.94;;;2.68;64.15
78117;BME280;69042;59.120;37.904;2023-12-20T12:31:13;97507.03;;;2.66;64.43
78117;BME280;69042;59.120;37.904;2023-12-20T12:33:41;97547.34;;;2.67;65.00
78117;BME280;69042;59.120;37.904;2023-12-20T12:36:08;97497.59;;;2.65;64.73
78117;BME280;69042;59.120;37.904;2023-12-20T12:38:34;97525.22;;;2.63;64.50
78117;BME280;69042;59.120;37.904;2023-12-20T12:41:01;97528.53;;;2.65;64.02
78117;BME280;69042;59.120;37.904;2023-12-20T12:43:27;97534.56;;;2.66;64.64
78117;BME280;69042;59.120;37.904;2023-12-20T12:45:53;97546.75;;;2.62;65.29
78117;BME280;69042;59.120;37.904;2023-12-20T12:48:21;97533.94;;;2.61;64.60
78117;BME280;69042;59.120;37.904;2023-12-20T12:50:48;97544.34;;;2.59;64.76
78117;BME280;69042;59.120;37.904;2023-12-20T12:53:17;97546.00;;;2.60;64.37
78117;BME280;69042;59.120;37.904;2023-12-20T12:55:43;97554.56;;;2.61;64.30
78117;BME280;69042;59.120;37.904;2023-12-20T12:58:10;97544.34;;;2.59;64.43
78117;BME280;69042;59.120;37.904;2023-12-20T13:00:36;97542.66;;;2.58;64.66